Time;durP1;ratioP1;P1;durP2;ratioP2;P2;SDS_P1;SDS_P2;PMS_P1;PMS_P2;Temp;Humidity;BMP_temperature;BMP_pressure;BME280_temperature;BME280_humidity;BME280_pressure;Samples;Min_cycle;Max_cycle;Signal;HPM_P1;HPM_P2
2022/05/08 00:01:46;;;;;;;5.88;4.85;;;;;;;20.41;60.53;101336.72;4993741;28;20051;-81
2022/05/08 00:04:14;;;;;;;5.40;4.18;;;;;;;20.40;60.50;101326.13;4996524;28;20057;-81
2022/05/08 00:06:41;;;;;;;6.72;4.82;;;;;;;20.40;60.34;101331.50;4997053;28;20047;-81
2022/05/08 00:09:09;;;;;;;4.82;4.32;;;;;;;20.41;60.33;101333.19;4997449;28;20061;-81
2022/05/08 00:11:37;;;;;;;5.78;4.43;;;;;;;20.40;60.50;101332.34;4995477;28;20533;-81
2022/05/08 00:14:04;;;;;;;6.15;5.07;;;;;;;20.40;60.38;101328.81;4996747;28;20490;-81
2022/05/08 00:16:32;;;;;;;5.32;4.60;;;;;;;20.40;60.59;101331.50;5012394;28;20046;-81
2022/05/08 00:18:59;;;;;;;5.07;4.10;;;;;;;20.40;60.53;101326.13;4996799;28;20486;-80
2022/05/08 00:21:27;;;;;;;5.72;4.68;;;;;;;20.40;60.38;101326.13;4996809;28;20529;-81
2022/05/08 00:23:54;;;;;;;5.38;4.63;;;;;;;20.39;60.44;101321.72;4995200;28;20053;-80
2022/05/08 00:26:27;;;;;;;5.40;4.75;;;;;;;20.40;60.33;101326.13;4997323;28;20446;-80
2022/05/08 00:28:55;;;;;;;5.22;4.55;;;;;;;20.38;60.45;101320.88;4996977;28;20057;-81
2022/05/08 00:31:24;;;;;;;6.00;4.18;;;;;;;20.39;60.76;101321.72;4997182;28;20050;-79
2022/05/08 00:33:52;;;;;;;5.75;4.65;;;;;;;20.39;60.31;101324.41;4997037;28;20073;-80
2022/05/08 00:36:20;;;;;;;5.32;4.43;;;;;;;20.39;60.51;101319.03;4995454;28;20050;-79
2022/05/08 00:38:47;;;;;;;5.03;4.53;;;;;;;20.38;60.50;101326.25;5011545;28;20042;-80
2022/05/08 00:41:14;;;;;;;4.78;4.32;;;;;;;20.39;60.43;101327.09;4996287;28;20050;-79
2022/05/08 00:43:42;;;;;;;6.40;4.15;;;;;;;20.38;60.47;101320.88;4996348;28;20058;-80
2022/05/08 00:46:11;;;;;;;5.28;4.50;;;;;;;20.38;60.37;101320.03;4995465;28;20054;-79
2022/05/08 00:48:44;;;;;;;4.85;4.38;;;;;;;20.37;60.57;101316.44;4996206;28;20035;-79
2022/05/08 00:51:14;;;;;;;5.70;4.07;;;;;;;20.38;60.44;101311.97;4995104;28;20054;-79
2022/05/08 00:53:45;;;;;;;5.68;4.70;;;;;;;20.38;60.38;101311.97;4996131;28;20054;-79
2022/05/08 00:56:14;;;;;;;5.30;4.75;;;;;;;20.38;60.41;101314.66;4996544;28;20046;-81
2022/05/08 00:58:43;;;;;;;5.40;4.65;;;;;;;20.38;60.32;101311.97;4995740;28;20050;-81
2022/05/08 01:01:13;;;;;;;5.20;4.50;;;;;;;20.38;60.44;101303.88;4996902;28;20050;-81
2022/05/08 01:03:41;;;;;;;6.95;4.68;;;;;;;20.37;60.48;101299.47;4996501;28;20054;-80
2022/05/08 01:06:13;;;;;;;4.70;4.13;;;;;;;20.37;60.54;101303.00;4996726;28;20053;-81
2022/05/08 01:08:43;;;;;;;6.75;4.70;;;;;;;20.38;60.39;101298.50;4996139;28;20046;-80
2022/05/08 01:11:12;;;;;;;6.10;4.38;;;;;;;20.37;60.58;101300.31;4994954;28;20047;-79
2022/05/08 01:13:41;;;;;;;5.93;4.57;;;;;;;20.38;60.52;101303.88;4995757;28;20062;-79
2022/05/08 01:16:14;;;;;;;5.20;4.50;;;;;;;20.38;60.54;101302.06;4995912;28;20046;-80
2022/05/08 01:18:46;;;;;;;5.18;4.68;;;;;;;20.38;60.48;101306.56;4995868;28;20046;-80
2022/05/08 01:21:17;;;;;;;4.70;4.30;;;;;;;20.38;60.55;101306.56;4996007;28;20053;-80
2022/05/08 01:23:45;;;;;;;4.68;4.25;;;;;;;20.37;60.49;101292.25;4995612;28;20418;-79
2022/05/08 01:26:22;;;;;;;5.88;4.53;;;;;;;20.36;60.53;101295.94;4994590;28;20050;-79
2022/05/08 01:28:50;;;;;;;5.60;4.82;;;;;;;20.37;60.50;101294.94;4996032;28;20049;-79
2022/05/08 01:31:17;;;;;;;4.30;3.90;;;;;;;20.36;60.44;101290.56;4995571;28;20053;-80
2022/05/08 01:33:45;;;;;;;4.65;3.95;;;;;;;20.36;60.59;101287.84;4995720;28;20118;-79
2022/05/08 01:36:12;;;;;;;5.65;4.00;;;;;;;20.36;60.42;101292.38;4995723;28;20050;-79
2022/05/08 01:38:40;;;;;;;4.88;4.05;;;;;;;20.36;60.47;101290.56;4995459;28;20050;-79
2022/05/08 01:41:08;;;;;;;4.65;4.13;;;;;;;20.36;60.63;101292.38;4993910;28;20050;-79
2022/05/08 01:43:36;;;;;;;6.43;4.32;;;;;;;20.35;60.65;101286.16;4995164;28;20053;-79
2022/05/08 01:46:05;;;;;;;5.30;4.53;;;;;;;20.36;60.47;101289.69;4995266;28;20528;-79
2022/05/08 01:48:34;;;;;;;5.00;4.50;;;;;;;20.36;60.49;101292.38;4995065;28;20046;-79
2022/05/08 01:51:02;;;;;;;5.85;4.53;;;;;;;20.35;60.37;101294.22;4995246;28;20046;-79
2022/05/08 01:53:33;;;;;;;4.68;4.28;;;;;;;20.35;60.46;101296.06;4994894;28;20122;-79
2022/05/08 01:56:04;;;;;;;4.75;4.25;;;;;;;20.35;60.38;101296.91;4995381;28;20050;-79
2022/05/08 01:58:32;;;;;;;7.63;5.18;;;;;;;20.35;60.51;101290.69;4977603;28;20050;-80
2022/05/08 02:01:02;;;;;;;5.25;4.75;;;;;;;20.35;60.50;101294.22;4995242;28;20054;-80
2022/05/08 02:03:30;;;;;;;5.30;4.50;;;;;;;20.34;60.57;101281.78;4993310;28;20142;-80
2022/05/08 02:05:57;;;;;;;6.15;4.60;;;;;;;20.36;60.59;101281.63;4994323;28;20491;-80
2022/05/08 02:08:25;;;;;;;6.93;3.85;;;;;;;20.35;60.31;101290.69;4995203;28;20058;-79
2022/05/08 02:10:55;;;;;;;5.38;4.63;;;;;;;20.35;60.56;101293.38;4995001;28;20091;-80
2022/05/08 02:13:22;;;;;;;4.78;4.25;;;;;;;20.35;60.58;101285.31;4994538;28;20050;-80
2022/05/08 02:15:49;;;;;;;4.55;3.80;;;;;;;20.34;60.57;101295.22;4994710;28;20057;-79
2022/05/08 02:18:17;;;;;;;5.32;4.75;;;;;;;20.35;60.57;101290.69;4994441;28;20054;-79
2022/05/08 02:20:45;;;;;;;5.50;4.80;;;;;;;20.35;60.45;101290.69;4994856;28;20038;-78
2022/05/08 02:23:12;;;;;;;5.25;4.28;;;;;;;20.35;60.47;101285.31;4994157;28;20054;-79
2022/05/08 02:25:40;;;;;;;6.80;4.43;;;;;;;20.35;60.55;101282.63;4994447;28;20054;-79
2022/05/08 02:28:09;;;;;;;4.75;4.32;;;;;;;20.34;60.49;101279.09;4994068;28;20054;-79
2022/05/08 02:30:36;;;;;;;4.95;4.32;;;;;;;20.34;60.45;101287.16;4994500;28;20050;-79
2022/05/08 02:33:04;;;;;;;5.13;3.83;;;;;;;20.35;60.40;101288.84;4994411;28;20054;-79
2022/05/08 02:35:32;;;;;;;4.65;4.25;;;;;;;20.34;60.53;101289.84;4994320;28;20073;-79
2022/05/08 02:38:00;;;;;;;5.72;4.63;;;;;;;20.35;60.44;101290.69;4994156;28;20417;-80
2022/05/08 02:40:27;;;;;;;5.07;4.47;;;;;;;20.34;60.42;101291.69;4994547;28;20053;-79
2022/05/08 02:42:54;;;;;;;4.55;4.10;;;;;;;20.33;60.37;101293.50;4994074;28;20050;-79
2022/05/08 02:45:23;;;;;;;5.22;4.05;;;;;;;20.34;60.57;101292.53;4994288;28;20429;-80
2022/05/08 02:47:50;;;;;;;4.97;4.47;;;;;;;20.34;60.38;101294.38;4994516;28;20058;-80
2022/05/08 02:50:19;;;;;;;5.05;4.47;;;;;;;20.34;60.49;101289.00;4992615;28;20061;-80
2022/05/08 02:52:47;;;;;;;5.82;4.00;;;;;;;20.34;60.46;101283.63;4993930;28;20069;-81
2022/05/08 03:00:47;;;;;;;4.88;4.10;;;;;;;20.33;60.55;101290.81;4992545;28;20054;-79
2022/05/08 03:03:15;;;;;;;4.25;3.80;;;;;;;20.33;60.43;101300.69;4994191;28;20054;-80
2022/05/08 03:05:47;;;;;;;4.50;3.85;;;;;;;20.33;60.53;101298.88;4993960;28;20046;-79
2022/05/08 03:08:17;;;;;;;7.57;4.73;;;;;;;20.33;60.40;101293.50;4993643;28;20402;-80
2022/05/08 03:13:37;;;;;;;4.78;4.22;;;;;;;20.33;60.44;101289.94;4993872;28;20058;-80
2022/05/08 03:16:06;;;;;;;4.28;3.72;;;;;;;20.33;60.35;101298.00;4993913;28;20042;-80
2022/05/08 03:18:35;;;;;;;5.75;4.43;;;;;;;20.33;60.49;101296.19;4993820;28;20065;-80
2022/05/08 03:21:02;;;;;;;4.60;4.20;;;;;;;20.32;60.61;101290.94;4992573;28;20054;-80
2022/05/08 03:23:31;;;;;;;6.55;4.70;;;;;;;20.33;60.70;101293.50;4993737;28;20058;-81
2022/05/08 03:25:59;;;;;;;6.35;4.30;;;;;;;20.32;60.46;101297.16;4993541;28;20046;-81
2022/05/08 03:28:27;;;;;;;5.53;4.20;;;;;;;20.31;60.67;101290.09;4992399;28;20058;-80
2022/05/08 03:30:54;;;;;;;4.85;4.35;;;;;;;20.31;60.72;101298.16;4993500;28;20065;-80
2022/05/08 03:33:21;;;;;;;5.28;4.50;;;;;;;20.31;60.43;101298.16;4993430;28;20046;-80
2022/05/08 03:35:49;;;;;;;5.03;4.13;;;;;;;20.31;60.63;101297.31;4994001;28;20057;-80
2022/05/08 03:38:18;;;;;;;4.57;4.05;;;;;;;20.32;60.64;101299.84;4997320;28;20486;-80
2022/05/08 03:40:45;;;;;;;6.35;4.28;;;;;;;20.31;60.64;101298.16;4997947;28;20491;-80
2022/05/08 03:43:12;;;;;;;5.10;3.83;;;;;;;20.32;60.65;101301.69;4997651;28;20050;-81
2022/05/08 03:45:40;;;;;;;5.15;4.20;;;;;;;20.31;60.55;101294.63;4998043;28;20050;-80
2022/05/08 03:48:07;;;;;;;4.15;3.75;;;;;;;20.31;60.72;101291.94;4996378;28;20061;-80
2022/05/08 03:50:35;;;;;;;5.03;3.95;;;;;;;20.31;60.56;101292.78;4997824;28;20105;-80
2022/05/08 03:53:03;;;;;;;4.20;3.72;;;;;;;20.32;60.77;101285.56;4997541;28;20050;-79
2022/05/08 03:55:31;;;;;;;4.72;3.72;;;;;;;20.31;60.85;101291.94;4997250;28;20212;-80
2022/05/08 03:57:58;;;;;;;4.78;4.05;;;;;;;20.31;60.84;101284.72;4997119;28;20042;-79
2022/05/08 04:00:26;;;;;;;4.10;3.70;;;;;;;20.31;60.91;101294.63;4997253;28;20042;-80
2022/05/08 04:02:54;;;;;;;4.07;3.67;;;;;;;20.31;60.84;101292.78;4997195;28;20053;-80
2022/05/08 04:05:22;;;;;;;4.82;3.80;;;;;;;20.31;60.73;101295.47;4997198;28;20050;-80
2022/05/08 04:07:49;;;;;;;4.35;3.95;;;;;;;20.30;60.84;101292.91;4996138;28;20107;-81
2022/05/08 04:10:17;;;;;;;4.38;3.92;;;;;;;20.31;60.89;101297.31;4996974;28;20054;-79
2022/05/08 04:12:44;;;;;;;4.70;4.28;;;;;;;20.31;60.88;101300.00;4997170;28;20054;-79
2022/05/08 04:17:59;;;;;;;4.57;4.18;;;;;;;20.30;60.79;101292.91;4997277;28;20046;-80
2022/05/08 04:20:26;;;;;;;4.60;4.00;;;;;;;20.30;60.90;101304.53;4996924;28;20042;-80
2022/05/08 04:25:40;;;;;;;5.85;4.18;;;;;;;20.31;60.78;101302.69;4996821;28;20383;-81
2022/05/08 04:28:07;;;;;;;4.53;3.88;;;;;;;20.29;60.89;101302.78;4996626;28;20054;-81
2022/05/08 04:30:36;;;;;;;5.28;4.47;;;;;;;20.30;60.83;101307.22;4995782;28;20069;-80
2022/05/08 04:33:04;;;;;;;5.63;4.38;;;;;;;20.31;60.66;101316.13;4996551;28;20046;-80
2022/05/08 04:35:31;;;;;;;4.53;4.13;;;;;;;20.31;60.90;101318.81;4980527;28;20517;-80
2022/05/08 04:37:59;;;;;;;4.70;3.83;;;;;;;20.30;60.76;101322.50;4977621;28;20383;-80
2022/05/08 04:40:26;;;;;;;4.75;4.25;;;;;;;20.30;60.98;101315.28;4976304;28;20505;-80
2022/05/08 04:42:53;;;;;;;5.15;4.43;;;;;;;20.29;60.77;101323.44;4977818;28;20051;-80
2022/05/08 04:45:21;;;;;;;4.38;3.90;;;;;;;20.29;60.97;101326.97;4987437;28;20057;-80
2022/05/08 04:47:54;;;;;;;5.20;4.22;;;;;;;20.29;60.93;101335.06;4977990;28;20047;-80
2022/05/08 04:50:21;;;;;;;4.47;4.07;;;;;;;20.30;60.87;101335.94;4977586;28;20042;-80
2022/05/08 04:52:49;;;;;;;4.13;3.67;;;;;;;20.30;60.90;101341.31;4981241;28;20061;-80
2022/05/08 04:55:16;;;;;;;5.03;4.03;;;;;;;20.29;60.78;101334.19;4980138;28;20057;-81
2022/05/08 04:57:44;;;;;;;4.78;4.28;;;;;;;20.30;60.74;101338.63;4977698;28;20050;-81
2022/05/08 05:00:11;;;;;;;4.53;4.10;;;;;;;20.29;60.80;101340.44;4977072;28;20193;-80
2022/05/08 05:02:39;;;;;;;4.30;3.85;;;;;;;20.29;60.86;101347.66;4975599;28;20054;-80
2022/05/08 05:05:07;;;;;;;6.18;3.92;;;;;;;20.28;60.79;101346.78;4976669;28;20058;-81
2022/05/08 05:07:34;;;;;;;5.38;3.95;;;;;;;20.29;60.74;101348.50;4976637;28;20053;-80
2022/05/08 05:10:02;;;;;;;4.40;3.88;;;;;;;20.28;60.89;101348.63;4975719;28;20051;-80
2022/05/08 05:12:30;;;;;;;4.43;3.60;;;;;;;20.28;60.80;101354.00;4976470;28;20043;-80
2022/05/08 05:14:59;;;;;;;4.90;3.95;;;;;;;20.30;60.88;101352.06;4976319;28;20049;-80
2022/05/08 05:17:27;;;;;;;5.20;4.15;;;;;;;20.29;60.91;101355.72;4976280;28;20051;-80
2022/05/08 05:19:54;;;;;;;5.65;4.03;;;;;;;20.29;60.88;101350.34;4975177;28;20570;-80
2022/05/08 05:22:22;;;;;;;4.40;3.95;;;;;;;20.29;60.89;101347.66;4976234;28;20062;-79
2022/05/08 05:24:50;;;;;;;5.20;4.65;;;;;;;20.28;60.88;101348.63;4975063;28;20402;-80
2022/05/08 05:27:17;;;;;;;5.85;4.20;;;;;;;20.28;60.77;101352.16;4976455;28;20047;-79
2022/05/08 05:29:45;;;;;;;4.43;4.00;;;;;;;20.28;60.69;101354.84;4976089;28;20055;-79
2022/05/08 05:32:12;;;;;;;5.03;4.03;;;;;;;20.28;60.77;101354.84;4976205;28;20058;-80
2022/05/08 05:34:40;;;;;;;4.35;3.88;;;;;;;20.28;60.83;101362.06;4976143;28;20047;-80
2022/05/08 05:37:08;;;;;;;5.78;4.20;;;;;;;20.28;60.87;101356.69;4974985;28;20054;-80
2022/05/08 05:39:35;;;;;;;4.50;4.10;;;;;;;20.28;60.76;101359.38;4975080;28;20047;-80
2022/05/08 05:42:03;;;;;;;4.32;3.80;;;;;;;20.29;60.91;101361.09;4976240;28;20059;-80
2022/05/08 05:44:30;;;;;;;6.25;3.97;;;;;;;20.27;60.81;101352.31;4974691;28;20415;-80
2022/05/08 05:49:44;;;;;;;4.03;3.60;;;;;;;20.28;60.87;101364.75;4976244;28;20070;-81
2022/05/08 05:52:11;;;;;;;4.60;4.18;;;;;;;20.28;60.84;101370.16;4974923;28;20062;-80
2022/05/08 05:54:38;;;;;;;4.35;3.95;;;;;;;20.28;60.84;101372.84;4975686;28;20054;-81
2022/05/08 05:57:06;;;;;;;4.80;4.25;;;;;;;20.28;60.69;101375.53;4975855;28;20046;-81
2022/05/08 05:59:33;;;;;;;4.65;4.15;;;;;;;20.28;60.81;101371.00;4975209;28;20051;-80
2022/05/08 06:02:08;;;;;;;4.75;4.13;;;;;;;20.28;60.91;101375.53;4974972;28;20047;-81
2022/05/08 06:04:35;;;;;;;5.78;4.40;;;;;;;20.28;60.91;101375.53;4975660;28;20051;-81
2022/05/08 06:07:03;;;;;;;5.60;4.35;;;;;;;20.28;61.05;101375.53;4975342;28;20073;-81
2022/05/08 06:09:30;;;;;;;5.22;4.10;;;;;;;20.28;61.08;101379.06;4975292;28;20053;-80
2022/05/08 06:11:58;;;;;;;4.63;3.80;;;;;;;20.29;60.89;101377.22;4975572;28;20057;-81
2022/05/08 06:14:25;;;;;;;3.80;3.45;;;;;;;20.28;60.95;101378.22;4975247;28;20043;-81
2022/05/08 06:16:54;;;;;;;6.88;3.88;;;;;;;20.28;61.08;101381.75;4975147;28;20049;-81
2022/05/08 06:19:22;;;;;;;4.15;3.53;;;;;;;20.28;61.06;101380.91;4975102;28;20043;-81
2022/05/08 06:21:52;;;;;;;5.20;4.32;;;;;;;20.28;61.06;101386.28;4976071;28;20043;-81
2022/05/08 06:24:20;;;;;;;4.38;3.38;;;;;;;20.27;61.04;101382.75;4974882;28;20051;-81
2022/05/08 06:26:48;;;;;;;5.38;4.30;;;;;;;20.28;60.91;101388.97;4990148;28;20049;-81
2022/05/08 06:29:15;;;;;;;4.38;3.97;;;;;;;20.27;61.08;101384.56;4974834;28;20394;-81
2022/05/08 06:31:46;;;;;;;5.55;3.60;;;;;;;20.28;60.91;101399.72;4974918;28;20038;-81
2022/05/08 06:34:17;;;;;;;5.85;4.20;;;;;;;20.27;61.01;101385.44;4975006;28;20436;-81
2022/05/08 06:36:45;;;;;;;5.40;4.32;;;;;;;20.27;61.07;101393.50;4975016;28;20054;-81
2022/05/08 06:39:15;;;;;;;5.93;4.18;;;;;;;20.27;60.93;101393.50;4974973;28;20047;-80
2022/05/08 06:41:43;;;;;;;5.00;3.88;;;;;;;20.28;61.00;101399.72;4975083;28;20038;-80
2022/05/08 06:44:13;;;;;;;4.88;3.95;;;;;;;20.27;61.01;101401.56;4975106;28;20503;-81
2022/05/08 06:46:40;;;;;;;4.80;4.22;;;;;;;20.27;60.94;101396.19;4980200;28;20482;-80
2022/05/08 06:49:09;;;;;;;4.78;4.28;;;;;;;20.27;60.95;101396.19;4994729;28;20046;-80
2022/05/08 06:51:36;;;;;;;6.53;4.00;;;;;;;20.28;61.05;101397.03;4995073;28;20054;-80
2022/05/08 06:54:03;;;;;;;3.78;3.30;;;;;;;20.27;61.11;101406.09;4994126;28;20054;-80
2022/05/08 06:56:35;;;;;;;5.38;3.92;;;;;;;20.27;60.92;101406.09;4995810;28;20054;-80
2022/05/08 07:01:49;;;;;;;4.70;4.00;;;;;;;20.27;61.14;101414.16;4995981;28;20046;-80
2022/05/08 07:04:17;;;;;;;5.72;4.20;;;;;;;20.27;60.82;101411.47;4996881;28;20512;-80
2022/05/08 07:06:44;;;;;;;7.22;3.95;;;;;;;20.27;61.01;101408.78;4996444;28;20057;-80
2022/05/08 07:09:14;;;;;;;4.55;3.70;;;;;;;20.27;61.03;101411.47;4995674;28;20057;-79
2022/05/08 07:11:45;;;;;;;4.78;3.85;;;;;;;20.25;60.93;101407.06;4993873;28;20136;-80
2022/05/08 07:14:16;;;;;;;4.90;3.75;;;;;;;20.27;61.15;101406.09;4994092;28;20054;-80
2022/05/08 07:16:44;;;;;;;4.32;3.90;;;;;;;20.27;61.07;101411.47;4994231;28;20065;-80
2022/05/08 07:19:12;;;;;;;5.10;4.20;;;;;;;20.27;61.18;101416.84;4994281;28;20478;-80
2022/05/08 07:21:39;;;;;;;4.30;3.90;;;;;;;20.27;61.14;101411.47;4996722;28;20049;-79
2022/05/08 07:24:07;;;;;;;5.47;4.07;;;;;;;20.27;61.04;101411.47;4996304;28;20065;-80
2022/05/08 07:26:36;;;;;;;5.40;3.60;;;;;;;20.25;61.17;101404.38;4993768;28;20057;-78
2022/05/08 07:29:07;;;;;;;5.55;3.78;;;;;;;20.27;61.06;101406.09;4993527;28;20050;-79
2022/05/08 07:31:34;;;;;;;7.45;6.75;;;;;;;20.27;61.13;101406.09;4994299;28;20058;-79
2022/05/08 07:36:47;;;;;;;12.25;10.30;;;;;;;20.17;61.38;101411.31;4994897;28;20057;-80
2022/05/08 07:39:15;;;;;;;12.73;10.18;;;;;;;20.13;61.87;101424.16;4995643;28;20050;-80
2022/05/08 07:41:42;;;;;;;13.55;11.85;;;;;;;20.11;61.75;101426.13;4995260;28;20057;-79
2022/05/08 07:44:09;;;;;;;17.75;13.10;;;;;;;20.07;62.34;101421.13;4993776;28;20057;-78
2022/05/08 07:46:37;;;;;;;18.02;12.95;;;;;;;20.03;62.47;101427.72;4994848;28;20050;-79
2022/05/08 07:49:05;;;;;;;13.93;10.73;;;;;;;20.01;62.48;101425.13;4987189;28;20046;-80
2022/05/08 07:51:32;;;;;;;12.38;9.27;;;;;;;20.00;62.48;101423.44;4994419;28;20051;-81
2022/05/08 07:53:59;;;;;;;11.73;10.52;;;;;;;20.01;62.40;101430.50;4994864;28;20051;-80
2022/05/08 07:56:28;;;;;;;14.05;10.30;;;;;;;20.00;62.39;101426.13;4993155;28;20053;-77
2022/05/08 07:58:55;;;;;;;12.68;9.45;;;;;;;20.02;62.43;101423.34;4993153;28;20394;-82
2022/05/08 08:01:23;;;;;;;9.52;7.90;;;;;;;20.05;62.59;101417.69;4993407;28;20042;-81
2022/05/08 08:04:10;;;;;;;8.85;7.18;;;;;;;20.08;62.22;101410.25;4993945;28;20054;-81
2022/05/08 08:06:38;;;;;;;6.60;6.00;;;;;;;20.11;62.45;101423.44;4993308;28;20413;-80
2022/05/08 08:09:05;;;;;;;10.68;6.93;;;;;;;20.13;62.55;101426.00;4993487;28;20046;-87
2022/05/08 08:11:33;;;;;;;8.60;6.70;;;;;;;20.13;62.21;101426.84;5008117;28;20049;-79
2022/05/08 08:14:01;;;;;;;7.18;6.18;;;;;;;20.12;62.07;101435.03;4993241;28;20425;-82
2022/05/08 08:16:29;;;;;;;10.48;6.68;;;;;;;20.13;62.07;101432.22;4993295;28;20038;-82
2022/05/08 08:18:58;;;;;;;13.35;6.43;;;;;;;20.13;62.07;101439.44;4994268;28;20054;-85
2022/05/08 08:21:25;;;;;;;8.13;5.82;;;;;;;20.15;62.16;101432.13;4995549;28;20043;-83
2022/05/08 08:23:53;;;;;;;10.70;7.03;;;;;;;20.16;62.23;101431.97;4994130;28;20054;-84
2022/05/08 08:26:20;;;;;;;10.65;6.75;;;;;;;20.17;62.37;101422.94;4996485;28;20053;-83
2022/05/08 08:28:48;;;;;;;7.55;6.75;;;;;;;20.19;62.21;101426.38;4997043;28;20049;-78
2022/05/08 08:31:15;;;;;;;7.18;6.47;;;;;;;20.20;62.12;101429.91;4996435;28;20038;-78
2022/05/08 08:33:44;;;;;;;10.70;7.50;;;;;;;20.22;62.13;101441.41;4996780;28;20058;-77
2022/05/08 08:36:12;;;;;;;9.75;7.13;;;;;;;20.22;61.93;101444.94;4991686;28;20062;-76
2022/05/08 08:38:40;;;;;;;10.80;7.28;;;;;;;20.22;61.95;101447.63;4976977;28;20054;-77
2022/05/08 08:41:08;;;;;;;10.70;7.68;;;;;;;20.23;61.91;101452.03;4977830;28;20390;-79
2022/05/08 08:49:20;;;;;;;10.23;7.72;;;;;;;20.22;62.15;101442.25;4983492;28;20046;-78
2022/05/08 08:51:48;;;;;;;11.57;8.43;;;;;;;20.23;62.08;101453.88;4996313;28;20038;-78
2022/05/08 08:54:19;;;;;;;11.82;9.30;;;;;;;20.24;62.24;101451.03;4996327;28;20043;-78
2022/05/08 08:56:50;;;;;;;14.20;8.25;;;;;;;20.24;62.13;101451.03;4996296;28;20502;-77
2022/05/08 08:59:24;;;;;;;10.43;7.10;;;;;;;20.25;62.17;101455.47;4996225;28;20043;-82
2022/05/08 09:01:51;;;;;;;8.98;6.70;;;;;;;20.27;62.21;101452.66;4996373;28;20053;-77
2022/05/08 09:04:19;;;;;;;8.93;6.55;;;;;;;20.29;61.98;101455.19;4996031;28;20053;-77
2022/05/08 09:06:47;;;;;;;9.05;6.25;;;;;;;20.30;61.77;101448.88;4995445;28;20050;-76
2022/05/08 09:09:28;;;;;;;7.55;5.80;;;;;;;20.31;61.61;101464.00;4995683;28;20133;-76
2022/05/08 09:11:57;;;;;;;7.80;5.38;;;;;;;20.32;61.58;101460.34;5010768;28;20065;-76
2022/05/08 09:14:35;;;;;;;6.65;5.95;;;;;;;20.34;61.44;101453.03;4995557;28;20050;-77
2022/05/08 09:17:04;;;;;;;8.05;5.18;;;;;;;20.35;61.47;101454.72;4995605;28;20058;-77
2022/05/08 09:19:37;;;;;;;8.70;5.53;;;;;;;20.36;61.49;101461.81;4996489;28;20049;-76
2022/05/08 09:22:15;;;;;;;8.55;4.88;;;;;;;20.35;61.24;101452.03;4995283;28;20057;-76
2022/05/08 09:24:55;;;;;;;6.38;4.50;;;;;;;20.36;61.18;101464.50;4994976;28;20093;-77
2022/05/08 09:27:23;;;;;;;5.68;5.07;;;;;;;20.36;61.16;101473.41;4995770;28;20057;-77
2022/05/08 09:30:07;;;;;;;6.85;4.90;;;;;;;20.37;61.28;101467.03;4994208;28;20058;-76
2022/05/08 09:32:39;;;;;;;5.35;4.85;;;;;;;20.38;61.12;101467.94;4995453;28;20106;-77
2022/05/08 09:35:07;;;;;;;6.22;4.65;;;;;;;20.38;60.97;101473.31;4995714;28;20073;-77
2022/05/08 09:37:51;;;;;;;6.25;4.90;;;;;;;20.39;61.05;101477.69;4995253;28;20478;-77
2022/05/08 09:40:21;;;;;;;7.63;4.75;;;;;;;20.40;60.83;101477.56;4995682;28;20053;-76
2022/05/08 09:42:48;;;;;;;5.13;4.63;;;;;;;20.39;60.82;101470.47;4995291;28;20455;-76
2022/05/08 09:45:15;;;;;;;6.68;4.82;;;;;;;20.40;61.00;101474.03;4995532;28;20519;-76
2022/05/08 09:47:46;;;;;;;6.82;4.88;;;;;;;20.41;60.91;101462.28;4994967;28;20049;-76
2022/05/08 09:50:16;;;;;;;5.35;4.78;;;;;;;20.40;60.79;101469.50;4994246;28;20053;-77
2022/05/08 09:52:45;;;;;;;7.15;4.65;;;;;;;20.40;60.79;101461.44;4994449;28;20042;-76
2022/05/08 09:55:19;;;;;;;6.57;4.68;;;;;;;20.41;60.85;101465.81;4995618;28;20402;-77
2022/05/08 09:57:47;;;;;;;7.40;4.50;;;;;;;20.41;60.69;101462.28;4994686;28;20058;-76
2022/05/08 10:00:16;;;;;;;5.40;3.72;;;;;;;20.40;60.65;101455.19;4995859;28;20053;-76
2022/05/08 10:02:48;;;;;;;5.03;4.32;;;;;;;20.41;60.63;101448.84;4996310;28;20049;-77
2022/05/08 10:05:16;;;;;;;7.90;4.38;;;;;;;20.40;60.52;101453.34;4995311;28;20050;-77
2022/05/08 10:07:45;;;;;;;4.88;4.28;;;;;;;20.41;60.53;101452.38;4994772;28;20046;-76
2022/05/08 10:15:48;;;;;;;5.88;3.55;;;;;;;20.41;60.45;101449.69;4995164;28;20057;-79
2022/05/08 10:18:28;;;;;;;4.22;3.83;;;;;;;20.42;60.38;101453.25;5009658;28;20048;-77
2022/05/08 10:21:01;;;;;;;3.92;3.53;;;;;;;20.42;60.46;101466.69;4994913;28;20053;-77
2022/05/08 10:23:41;;;;;;;5.35;3.67;;;;;;;20.42;60.24;101461.31;4994411;28;20050;-76
2022/05/08 10:26:20;;;;;;;5.38;4.07;;;;;;;20.42;60.36;101461.31;4993786;28;20050;-77
2022/05/08 10:29:13;;;;;;;4.82;3.97;;;;;;;20.42;60.27;101458.63;4995100;28;20050;-77
2022/05/08 10:31:48;;;;;;;5.32;3.63;;;;;;;20.42;60.32;101459.47;4993137;28;20047;-77
2022/05/08 10:34:29;;;;;;;4.65;3.92;;;;;;;20.42;60.32;101459.47;4994195;28;20057;-77
2022/05/08 10:37:11;;;;;;;5.28;4.13;;;;;;;20.41;60.30;101463.13;4979994;28;20058;-76
2022/05/08 10:39:41;;;;;;;7.15;3.63;;;;;;;20.41;60.10;101455.06;4974448;28;20391;-77
2022/05/08 10:42:27;;;;;;;3.97;3.53;;;;;;;20.42;60.07;101450.56;4975598;28;20046;-77
2022/05/08 10:44:58;;;;;;;4.00;3.60;;;;;;;20.43;60.08;101454.97;4975818;28;20047;-76
2022/05/08 10:47:32;;;;;;;5.55;4.18;;;;;;;20.42;60.14;101447.88;4973779;28;20043;-77
2022/05/08 10:50:00;;;;;;;3.63;3.30;;;;;;;20.42;60.18;101443.34;4973750;28;20055;-77
2022/05/08 10:52:30;;;;;;;4.22;3.83;;;;;;;20.43;60.07;101446.88;4992148;28;20054;-77
2022/05/08 10:55:08;;;;;;;4.78;3.60;;;;;;;20.43;59.99;101441.50;4994632;28;20039;-77
2022/05/08 10:57:36;;;;;;;3.55;3.25;;;;;;;20.43;60.09;101434.28;4993871;28;20042;-77
2022/05/08 11:00:07;;;;;;;4.07;3.67;;;;;;;20.43;59.77;101441.50;4993479;28;20054;-77
2022/05/08 11:03:04;;;;;;;6.30;3.83;;;;;;;20.42;60.04;101437.97;4993757;28;20058;-77
2022/05/08 11:05:37;;;;;;;4.10;3.58;;;;;;;20.43;59.97;101434.28;4997069;28;20130;-77
2022/05/08 11:08:13;;;;;;;4.47;3.78;;;;;;;20.43;59.84;101436.97;4993613;28;20046;-77
2022/05/08 11:10:42;;;;;;;4.88;4.03;;;;;;;20.44;59.85;101437.84;4993795;28;20051;-77
2022/05/08 11:13:10;;;;;;;3.88;3.40;;;;;;;20.44;59.86;101440.53;4993853;28;20057;-77
2022/05/08 11:15:46;;;;;;;4.00;3.20;;;;;;;20.44;59.85;101438.69;4981727;28;20061;-77
2022/05/08 11:18:24;;;;;;;4.40;3.78;;;;;;;20.44;59.82;101436.00;4974407;28;20046;-77
2022/05/08 11:21:02;;;;;;;4.22;3.83;;;;;;;20.44;59.79;101430.63;4974883;28;20077;-77
2022/05/08 11:23:34;;;;;;;4.65;3.45;;;;;;;20.45;59.85;101428.78;4973745;28;20051;-77
2022/05/08 11:26:05;;;;;;;4.72;3.35;;;;;;;20.45;59.81;101420.72;4973953;28;20062;-77
2022/05/08 11:28:36;;;;;;;5.65;3.72;;;;;;;20.44;59.82;101409.09;4974376;28;20047;-77
2022/05/08 11:31:14;;;;;;;3.33;3.03;;;;;;;20.45;59.68;101409.94;4974158;28;20073;-77
2022/05/08 11:36:30;;;;;;;4.90;3.47;;;;;;;20.46;59.81;101406.31;4974307;28;20061;-77
2022/05/08 11:39:04;;;;;;;5.75;3.50;;;;;;;20.45;59.57;101400.03;4974592;28;20059;-77
2022/05/08 11:41:31;;;;;;;5.00;3.60;;;;;;;20.46;59.59;101406.31;4974252;28;20051;-76
2022/05/08 11:44:04;;;;;;;4.05;3.45;;;;;;;20.46;59.71;101400.94;4973671;28;20038;-77
2022/05/08 11:46:36;;;;;;;3.55;3.15;;;;;;;20.46;59.80;101399.09;4973932;28;20415;-77
2022/05/08 11:49:16;;;;;;;5.07;3.63;;;;;;;20.47;59.61;101402.63;4973977;28;20055;-77
2022/05/08 11:51:46;;;;;;;6.10;3.65;;;;;;;20.47;59.49;101405.31;4978070;28;20049;-77
2022/05/08 11:54:21;;;;;;;4.65;3.40;;;;;;;20.47;59.34;101405.31;4992253;28;20478;-77
2022/05/08 11:56:53;;;;;;;3.47;3.17;;;;;;;20.47;59.50;101405.31;4993378;28;20080;-77
2022/05/08 11:59:22;;;;;;;6.60;3.70;;;;;;;20.46;59.72;101404.47;4995656;28;20106;-77
2022/05/08 12:01:52;;;;;;;4.95;3.38;;;;;;;20.47;59.52;101411.53;4997553;28;20054;-76
2022/05/08 12:04:33;;;;;;;3.90;3.50;;;;;;;20.47;59.40;101402.63;4997316;28;20045;-76
2022/05/08 12:07:06;;;;;;;5.10;3.47;;;;;;;20.47;59.35;101403.47;4998191;28;20055;-76
2022/05/08 12:09:36;;;;;;;4.63;3.80;;;;;;;20.48;59.50;101409.72;4997372;28;20065;-77
2022/05/08 12:12:33;;;;;;;3.72;3.33;;;;;;;20.48;59.38;101404.34;4997966;28;20050;-77